Weather at London Gatwick Airport

Public forecast

Using degrees Celsius for public forecast. Weather courtesy of forecast.io.

Current aviation weather report (METAR) for London Gatwick Airport

2024/04/22 05:50 (retrieved 29 minutes ago)

EGKK 220550Z 29003KT 230V340 CAVOK 04/02 Q1029

Aviation forecast (TAF) for London Gatwick Airport

2024/04/22 06:15 (retrieved 4 minutes ago)

TAF EGKK 220454Z 2206/2312 35006KT 9999 FEW040 PROB30 TEMPO 2210/2216 7000 -RADZ BKN014 TEMPO 2305/2312 6000 -RADZ RA BKN012 PROB30 TEMPO 2307/2312 4000 RADZ BKN007